HTI weather

Hamilton Island Airport
Hamilton Island, Queensland, Australia

Public forecast

Using degrees Celsius for public forecast. Weather courtesy of forecast.io.

METAR (pilot weather report)

Retrieved 2018/09/21 13:00 UTC (19 minutes ago):

YBHM 211300Z AUTO 12025KT 9999 // NCD 22/15 Q1022

TAF (pilot weather forecast)

Retrieved 2018/09/21 12:00 UTC (1 hour ago):

TAF YBHM 211106Z 2112/2124 13025KT 9999 FEW020 FM211400 12025KT 9999 -SHRA FEW018 SCT025